Time;durP1;ratioP1;P1;durP2;ratioP2;P2;SDS_P1;SDS_P2;PMS_P1;PMS_P2;Temp;Humidity;BMP_temperature;BMP_pressure;BME280_temperature;BME280_humidity;BME280_pressure;Samples;Min_cycle;Max_cycle;Signal;HPM_P1;HPM_P2
2023/03/05 00:01:42;;;;;;;5.40;1.30;;;;;;;4.33;84.51;102107.06;5118548;27;20467;-88
2023/03/05 00:04:16;;;;;;;12.17;1.47;;;;;;;4.32;84.84;102108.88;5136631;27;20019;-89
2023/03/05 00:06:42;;;;;;;9.27;1.20;;;;;;;4.30;84.71;102102.81;5118698;27;20023;-88
2023/03/05 00:09:07;;;;;;;12.37;1.70;;;;;;;4.32;84.89;102108.88;5118428;27;20019;-88
2023/03/05 00:11:35;;;;;;;10.43;1.70;;;;;;;4.32;85.50;102106.19;5118276;27;20073;-88
2023/03/05 00:14:03;;;;;;;13.48;1.90;;;;;;;4.29;84.88;102103.78;5137204;27;20083;-88
2023/03/05 00:16:28;;;;;;;7.03;1.20;;;;;;;4.31;85.38;102112.59;5136700;27;20038;-89
2023/03/05 00:18:55;;;;;;;9.47;1.27;;;;;;;4.30;85.47;102110.88;5084324;27;20391;-88
2023/03/05 00:21:25;;;;;;;9.18;1.30;;;;;;;4.29;85.34;102109.16;5084044;27;20046;-88
2023/03/05 00:23:52;;;;;;;9.32;1.63;;;;;;;4.26;85.70;102103.25;5136567;27;20496;-88
2023/03/05 00:26:19;;;;;;;11.02;1.30;;;;;;;4.27;86.11;102110.31;5117713;27;20027;-88
2023/03/05 00:28:48;;;;;;;6.93;1.50;;;;;;;4.18;86.07;102096.75;5117730;27;20031;-89
2023/03/05 00:31:24;;;;;;;7.53;1.38;;;;;;;4.19;86.32;102101.13;5137240;27;20455;-89
2023/03/05 00:33:54;;;;;;;6.97;1.33;;;;;;;4.17;86.27;102086.97;5118844;27;20076;-88
2023/03/05 00:36:19;;;;;;;11.73;1.17;;;;;;;4.19;86.30;102090.38;5118161;27;20023;-88
2023/03/05 00:38:45;;;;;;;9.33;1.30;;;;;;;4.19;86.69;102095.75;5117268;27;20054;-89
2023/03/05 00:41:11;;;;;;;11.18;1.63;;;;;;;4.12;87.07;102083.88;5100541;27;20031;-89
2023/03/05 00:43:36;;;;;;;10.00;1.02;;;;;;;4.15;87.00;102082.72;5117754;27;20473;-89
2023/03/05 00:46:02;;;;;;;7.77;1.70;;;;;;;4.14;86.99;102078.38;5117821;27;20038;-88
2023/03/05 00:48:27;;;;;;;6.72;1.40;;;;;;;4.15;86.69;102075.53;5117537;27;20058;-89
2023/03/05 00:51:00;;;;;;;9.67;1.83;;;;;;;4.13;86.88;102061.38;5116909;27;20123;-87
2023/03/05 00:53:26;;;;;;;7.35;1.33;;;;;;;4.14;87.38;102067.63;5117544;27;20027;-88
2023/03/05 00:55:58;;;;;;;9.27;2.00;;;;;;;4.14;87.42;102067.63;5116972;27;20023;-88
2023/03/05 00:58:24;;;;;;;13.65;1.55;;;;;;;4.16;87.75;102073.69;5135565;27;20038;-88
2023/03/05 01:00:49;;;;;;;8.57;1.40;;;;;;;4.14;88.52;102073.84;5117261;27;20475;-88
2023/03/05 01:03:16;;;;;;;10.07;1.58;;;;;;;4.10;88.38;102068.91;5117336;27;20053;-88
2023/03/05 01:05:42;;;;;;;11.30;1.60;;;;;;;4.07;88.29;102058.44;5100209;27;20031;-88
2023/03/05 01:08:07;;;;;;;11.85;1.60;;;;;;;4.05;89.45;102069.34;5116911;27;20122;-89
2023/03/05 01:10:33;;;;;;;10.93;1.80;;;;;;;4.03;89.04;102061.41;5117165;27;20035;-88
2023/03/05 01:12:59;;;;;;;14.32;2.00;;;;;;;4.06;89.00;102059.41;5116581;27;20096;-88
2023/03/05 01:15:25;;;;;;;10.50;1.87;;;;;;;4.02;89.30;102051.66;5117205;27;20027;-88
2023/03/05 01:17:58;;;;;;;9.18;1.77;;;;;;;4.01;89.98;102054.47;5117207;27;20489;-88
2023/03/05 01:20:23;;;;;;;11.00;2.03;;;;;;;4.01;90.14;102047.25;5117364;27;20031;-88
2023/03/05 01:22:54;;;;;;;12.33;1.50;;;;;;;4.03;89.96;102045.31;5116830;27;20518;-89
2023/03/05 01:25:19;;;;;;;8.70;1.58;;;;;;;4.02;90.81;102048.13;5134983;27;20015;-89
2023/03/05 01:27:45;;;;;;;12.13;1.60;;;;;;;3.97;90.65;102043.19;5116762;27;20026;-89
2023/03/05 01:30:16;;;;;;;8.57;1.70;;;;;;;3.97;90.58;102043.19;5135524;27;20031;-88
2023/03/05 01:32:42;;;;;;;8.80;1.60;;;;;;;3.92;90.76;102040.06;5116788;27;20031;-89
2023/03/05 01:35:14;;;;;;;9.48;1.50;;;;;;;3.86;90.77;102033.44;5135761;27;20070;-88
2023/03/05 01:37:42;;;;;;;10.25;1.42;;;;;;;3.82;91.40;102037.41;5116684;27;20066;-88
2023/03/05 01:40:09;;;;;;;9.48;1.50;;;;;;;3.76;91.50;102026.38;5135674;27;20522;-89
2023/03/05 01:42:35;;;;;;;10.90;1.30;;;;;;;3.73;92.20;102024.81;5134713;27;20054;-87
2023/03/05 01:45:08;;;;;;;8.47;1.97;;;;;;;3.77;92.36;102020.88;5116425;27;20072;-88
2023/03/05 01:47:35;;;;;;;11.30;1.48;;;;;;;3.70;93.14;102014.34;5135000;27;20091;-88
2023/03/05 01:50:01;;;;;;;8.77;1.40;;;;;;;3.72;94.02;102020.47;5134557;27;20023;-87
2023/03/05 01:52:32;;;;;;;9.65;1.50;;;;;;;3.67;93.80;102007.44;5116052;27;20513;-88
2023/03/05 01:55:02;;;;;;;13.00;1.33;;;;;;;3.63;94.15;101999.81;5116000;27;20059;-88
2023/03/05 01:57:43;;;;;;;10.15;1.10;;;;;;;3.61;94.19;101991.91;5116520;27;20510;-88
2023/03/05 02:00:16;;;;;;;7.82;1.02;;;;;;;3.63;93.73;101999.81;5116523;27;20027;-87
2023/03/05 02:02:45;;;;;;;4.90;1.38;;;;;;;3.63;93.39;101994.44;5116162;27;20462;-88
2023/03/05 02:05:27;;;;;;;11.00;1.30;;;;;;;3.66;93.62;101989.66;5134646;27;20031;-88
2023/03/05 02:07:58;;;;;;;4.07;0.90;;;;;;;3.65;93.53;101985.25;5134441;27;20031;-88
2023/03/05 02:10:28;;;;;;;9.50;1.65;;;;;;;3.66;93.54;101984.28;5116520;27;20195;-88
2023/03/05 02:12:58;;;;;;;5.97;1.00;;;;;;;3.62;93.93;101968.63;5116405;27;20442;-88
2023/03/05 02:15:24;;;;;;;8.13;1.15;;;;;;;3.64;93.60;101962.09;5116229;27;20027;-88
2023/03/05 02:17:49;;;;;;;8.33;1.20;;;;;;;3.64;93.94;101964.78;5116313;28;20156;-88
2023/03/05 02:20:21;;;;;;;8.33;1.10;;;;;;;3.67;93.57;101969.00;5115496;28;20152;-88
2023/03/05 02:22:47;;;;;;;8.35;1.20;;;;;;;3.66;93.44;101967.31;5116107;28;20284;-88
2023/03/05 02:25:13;;;;;;;10.77;1.27;;;;;;;3.69;93.78;101967.91;5099317;28;20027;-88
2023/03/05 02:27:41;;;;;;;6.35;1.30;;;;;;;3.64;94.11;101962.09;5120058;27;20023;-87
2023/03/05 02:30:08;;;;;;;9.77;1.60;;;;;;;3.64;94.63;101959.41;5120196;27;20027;-88
2023/03/05 02:32:33;;;;;;;9.57;1.52;;;;;;;3.61;94.97;101962.38;5120109;27;20034;-88
2023/03/05 02:34:58;;;;;;;9.63;1.40;;;;;;;3.58;94.79;101951.94;5120248;27;20031;-88
2023/03/05 02:37:24;;;;;;;6.30;1.00;;;;;;;3.57;94.89;101949.38;5138309;27;20038;-88
2023/03/05 02:39:49;;;;;;;9.87;1.40;;;;;;;3.55;95.21;101960.25;5116285;28;20192;-88
2023/03/05 02:42:15;;;;;;;7.03;1.40;;;;;;;3.54;94.96;101950.50;5116704;28;20370;-89
2023/03/05 02:44:42;;;;;;;7.07;1.20;;;;;;;3.54;95.33;101947.81;5116808;28;20033;-88
2023/03/05 02:47:08;;;;;;;10.65;1.85;;;;;;;3.52;95.72;101944.44;5116581;28;20387;-89
2023/03/05 02:49:33;;;;;;;9.60;2.07;;;;;;;3.48;95.83;101935.84;5116498;28;20122;-89
2023/03/05 02:51:59;;;;;;;6.65;1.30;;;;;;;3.44;95.93;101931.75;5118163;28;20035;-88
2023/03/05 02:54:24;;;;;;;6.77;1.57;;;;;;;3.47;95.67;101939.50;5117646;28;20088;-89
2023/03/05 02:56:52;;;;;;;10.40;1.90;;;;;;;3.45;96.09;101928.06;5116286;28;20032;-88
2023/03/05 02:59:18;;;;;;;5.85;1.13;;;;;;;3.44;96.36;101926.38;5116590;28;20043;-88
2023/03/05 03:01:43;;;;;;;7.37;1.50;;;;;;;3.43;96.24;101923.84;5099588;28;20078;-89
2023/03/05 03:04:09;;;;;;;9.60;1.47;;;;;;;3.42;96.38;101922.97;5116476;28;20042;-88
2023/03/05 03:06:34;;;;;;;9.88;1.45;;;;;;;3.40;96.93;101916.91;5116176;28;20027;-88
2023/03/05 03:09:00;;;;;;;8.90;1.60;;;;;;;3.37;96.94;101917.22;5116213;28;20077;-88
2023/03/05 03:11:25;;;;;;;9.33;1.43;;;;;;;3.37;96.93;101916.38;5117119;28;20039;-88
2023/03/05 03:13:53;;;;;;;10.30;1.50;;;;;;;3.28;97.02;101910.84;5116030;28;20027;-88
2023/03/05 03:16:18;;;;;;;8.93;1.50;;;;;;;3.24;97.80;101905.91;5099518;28;20030;-88
2023/03/05 03:18:46;;;;;;;9.23;1.70;;;;;;;3.21;97.71;101896.31;5116009;28;20027;-88
2023/03/05 03:21:38;;;;;;;7.17;1.70;;;;;;;3.22;97.89;101903.38;5116002;28;20063;-87
2023/03/05 03:24:03;;;;;;;10.02;1.70;;;;;;;3.17;98.25;101902.94;5111374;28;20084;-88
2023/03/05 03:26:30;;;;;;;10.25;1.90;;;;;;;3.14;98.21;101896.03;5115429;28;20023;-88
2023/03/05 03:28:56;;;;;;;13.23;1.70;;;;;;;3.14;98.60;101897.84;5116044;28;20180;-88
2023/03/05 03:31:22;;;;;;;10.10;2.00;;;;;;;3.08;97.91;101893.06;5117066;28;20106;-88
2023/03/05 03:33:47;;;;;;;10.02;1.88;;;;;;;2.94;99.11;101889.81;5115627;28;20019;-88
2023/03/05 03:36:13;;;;;;;15.03;1.97;;;;;;;2.93;99.07;101885.41;5116467;28;20024;-88
2023/03/05 03:38:38;;;;;;;7.17;2.00;;;;;;;2.89;99.25;101878.63;5122325;27;20423;-88
2023/03/05 03:41:07;;;;;;;8.30;1.90;;;;;;;2.90;99.30;101874.16;5119933;27;20031;-88
2023/03/05 03:43:37;;;;;;;8.43;1.80;;;;;;;2.82;99.99;101864.13;5102140;27;20486;-88
2023/03/05 03:46:06;;;;;;;11.98;2.35;;;;;;;2.80;100.00;101872.31;5137109;27;20156;-88
2023/03/05 03:48:32;;;;;;;11.10;2.10;;;;;;;2.77;100.00;101858.31;5118961;27;20370;-88
2023/03/05 03:50:57;;;;;;;12.65;2.05;;;;;;;2.78;100.00;101868.06;5118751;27;20031;-88
2023/03/05 03:53:23;;;;;;;17.83;2.57;;;;;;;2.81;100.00;101870.47;5118770;27;20038;-88
2023/03/05 03:55:50;;;;;;;11.27;2.97;;;;;;;2.78;100.00;101868.91;5101389;27;20042;-88
2023/03/05 03:58:16;;;;;;;8.55;2.22;;;;;;;2.78;100.00;101860.88;5118530;27;20023;-88
2023/03/05 04:00:41;;;;;;;10.63;2.67;;;;;;;2.75;100.00;101855.78;5137052;27;20401;-87
2023/03/05 04:03:07;;;;;;;6.97;2.60;;;;;;;2.79;100.00;101864.38;5118610;27;20450;-87
2023/03/05 04:05:33;;;;;;;12.05;2.78;;;;;;;2.78;100.00;101855.50;5118442;27;20784;-88
2023/03/05 04:08:00;;;;;;;10.70;2.63;;;;;;;2.71;100.00;101857.03;5136756;27;20055;-88
2023/03/05 04:10:26;;;;;;;11.65;2.58;;;;;;;2.69;100.00;101853.66;5136530;27;20038;-88
2023/03/05 04:12:51;;;;;;;10.98;2.80;;;;;;;2.69;100.00;101853.66;5118370;27;20027;-87
2023/03/05 04:15:17;;;;;;;12.33;2.57;;;;;;;2.72;100.00;101849.88;5117872;27;20023;-88
2023/03/05 04:17:45;;;;;;;10.47;2.80;;;;;;;2.72;100.00;101849.88;5119016;27;20027;-88
2023/03/05 04:20:17;;;;;;;11.85;2.83;;;;;;;2.71;100.00;101849.00;5118203;27;20359;-88
2023/03/05 04:22:44;;;;;;;9.30;2.85;;;;;;;2.67;100.00;101841.38;5118052;27;20080;-88
2023/03/05 04:25:10;;;;;;;13.15;2.97;;;;;;;2.65;100.00;101835.31;5100985;27;20034;-87
2023/03/05 04:27:36;;;;;;;13.90;3.00;;;;;;;2.66;100.00;101837.00;5118167;27;20031;-88
2023/03/05 04:30:03;;;;;;;14.02;3.50;;;;;;;2.65;100.00;101832.66;5118242;27;20027;-88
2023/03/05 04:32:28;;;;;;;9.32;2.70;;;;;;;2.61;100.00;101826.69;5118233;27;20046;-88
2023/03/05 04:34:57;;;;;;;13.73;2.90;;;;;;;2.62;100.00;101828.41;5136478;27;20062;-88
2023/03/05 04:37:24;;;;;;;8.00;3.15;;;;;;;2.62;100.00;101828.41;5117634;27;20029;-88
2023/03/05 04:39:50;;;;;;;23.95;3.83;;;;;;;2.63;100.00;101822.91;5117503;27;20100;-88
2023/03/05 04:42:18;;;;;;;10.35;3.38;;;;;;;2.66;100.00;101837.88;5117864;27;20019;-88
2023/03/05 04:44:43;;;;;;;17.20;3.20;;;;;;;2.62;100.00;101818.53;5117610;27;20034;-88
2023/03/05 04:47:09;;;;;;;15.18;3.97;;;;;;;2.63;100.00;101822.06;5118149;27;20028;-88
2023/03/05 04:49:34;;;;;;;14.20;3.80;;;;;;;2.67;100.00;101819.94;5135515;27;20034;-88
2023/03/05 04:52:02;;;;;;;14.30;3.80;;;;;;;2.69;100.00;101817.97;5118509;27;20035;-88
2023/03/05 04:54:27;;;;;;;10.05;3.60;;;;;;;2.68;100.00;101816.28;5117382;27;20027;-88
2023/03/05 04:56:53;;;;;;;14.40;4.22;;;;;;;2.67;100.00;101815.41;5116962;27;20015;-87
2023/03/05 04:59:18;;;;;;;12.25;3.75;;;;;;;2.68;100.00;101813.59;5135961;27;20023;-88
2023/03/05 05:01:44;;;;;;;13.17;4.33;;;;;;;2.67;100.00;101807.38;5117571;27;20072;-88
2023/03/05 05:04:09;;;;;;;16.07;4.67;;;;;;;2.68;100.00;101806.41;5117245;27;20087;-88
2023/03/05 05:06:35;;;;;;;12.57;4.65;;;;;;;2.67;100.00;101810.06;5118186;27;20027;-88
2023/03/05 05:09:00;;;;;;;12.97;4.27;;;;;;;2.68;100.00;101800.22;5116957;27;20025;-86
2023/03/05 05:11:26;;;;;;;13.20;4.40;;;;;;;2.70;100.00;101801.78;5118062;27;20115;-88
2023/03/05 05:13:51;;;;;;;15.80;4.23;;;;;;;2.65;100.00;101790.59;5135212;27;20027;-88
2023/03/05 05:16:17;;;;;;;17.27;4.63;;;;;;;2.66;100.00;101796.81;5117427;27;20023;-88
2023/03/05 05:18:42;;;;;;;10.80;3.97;;;;;;;2.69;100.00;101796.53;5136006;27;20030;-88
2023/03/05 05:21:10;;;;;;;16.80;4.63;;;;;;;2.68;100.00;101793.00;5117425;27;20038;-88
2023/03/05 05:23:36;;;;;;;10.57;4.55;;;;;;;2.70;100.00;101792.88;5135042;27;20020;-88
2023/03/05 05:26:04;;;;;;;9.67;4.27;;;;;;;2.67;100.00;101787.78;5135073;27;20039;-88
2023/03/05 05:28:30;;;;;;;11.88;4.32;;;;;;;2.71;100.00;101790.03;5116779;27;20300;-88
2023/03/05 05:30:56;;;;;;;16.30;5.00;;;;;;;2.70;100.00;101782.16;5116577;27;20074;-88
2023/03/05 05:33:22;;;;;;;10.30;4.20;;;;;;;2.71;100.00;101790.03;5116974;27;20023;-88
2023/03/05 05:35:50;;;;;;;16.20;4.80;;;;;;;2.69;100.00;101791.16;5116778;27;20057;-88
2023/03/05 05:38:17;;;;;;;16.55;5.22;;;;;;;2.69;100.00;101789.34;5117187;27;20051;-88
2023/03/05 05:40:43;;;;;;;19.90;5.10;;;;;;;2.60;100.00;101780.31;5116342;27;20031;-88
2023/03/05 05:43:11;;;;;;;10.10;4.67;;;;;;;2.58;100.00;101787.66;5116596;27;20034;-89
2023/03/05 05:45:37;;;;;;;17.92;5.05;;;;;;;2.54;100.00;101788.06;5116253;27;20031;-88
2023/03/05 05:48:03;;;;;;;13.77;4.95;;;;;;;2.53;100.00;101783.69;5117016;27;20063;-88
2023/03/05 05:50:28;;;;;;;11.37;5.03;;;;;;;2.52;100.00;101787.34;5116487;27;20067;-88
2023/03/05 05:52:53;;;;;;;12.70;4.67;;;;;;;2.49;100.00;101780.44;5116900;27;20467;-88
2023/03/05 05:55:19;;;;;;;14.15;5.03;;;;;;;2.50;100.00;101779.47;5116121;27;20367;-88
2023/03/05 05:57:44;;;;;;;10.10;4.93;;;;;;;2.45;100.00;101777.19;5099171;27;20019;-88
2023/03/05 06:00:15;;;;;;;16.47;4.90;;;;;;;2.49;100.00;101774.25;5116195;27;20378;-88
2023/03/05 06:02:42;;;;;;;18.88;5.22;;;;;;;2.49;100.00;101764.38;5134821;27;20031;-88
2023/03/05 06:05:11;;;;;;;10.82;4.97;;;;;;;2.42;100.00;101757.88;5134415;27;20438;-88
2023/03/05 06:07:36;;;;;;;14.50;5.07;;;;;;;2.39;100.00;101759.00;5116535;27;20031;-88
2023/03/05 06:10:02;;;;;;;16.13;5.60;;;;;;;2.36;100.00;101753.06;5134861;27;20019;-88
2023/03/05 06:12:28;;;;;;;13.23;4.93;;;;;;;2.33;100.00;101750.69;5116219;27;20179;-88
2023/03/05 06:14:53;;;;;;;15.17;4.77;;;;;;;2.32;100.00;101746.28;5116490;27;20122;-88
2023/03/05 06:17:19;;;;;;;17.73;4.93;;;;;;;2.29;100.00;101750.13;5115877;27;20431;-88
2023/03/05 06:19:45;;;;;;;15.38;5.53;;;;;;;2.28;100.00;101746.56;5099228;28;20027;-88
2023/03/05 06:22:10;;;;;;;14.03;6.13;;;;;;;2.28;100.00;101749.25;5116867;28;20027;-88
2023/03/05 06:24:37;;;;;;;12.68;5.05;;;;;;;2.30;100.00;101748.28;5116642;28;20372;-85
2023/03/05 06:27:03;;;;;;;11.77;5.35;;;;;;;2.30;100.00;101748.28;5115448;28;20024;-87
2023/03/05 06:29:29;;;;;;;12.18;5.43;;;;;;;2.34;100.00;101750.53;5115646;28;20035;-86
2023/03/05 06:31:54;;;;;;;13.40;5.43;;;;;;;2.37;100.00;101754.78;5115936;28;20039;-86
2023/03/05 06:34:20;;;;;;;13.40;5.60;;;;;;;2.37;100.00;101758.28;5098876;28;20663;-86
2023/03/05 06:36:45;;;;;;;9.70;5.17;;;;;;;2.37;100.00;101755.63;5098456;28;20160;-86
2023/03/05 06:39:11;;;;;;;14.10;5.53;;;;;;;2.35;100.00;101757.59;5115880;28;20502;-85
2023/03/05 06:41:36;;;;;;;11.25;5.13;;;;;;;2.37;100.00;101749.41;5115596;28;20042;-85
2023/03/05 06:44:02;;;;;;;12.75;4.88;;;;;;;2.35;100.00;101754.03;5133759;28;20499;-85
2023/03/05 06:46:30;;;;;;;12.45;5.03;;;;;;;2.32;100.00;101757.00;5134331;28;20035;-85
2023/03/05 06:48:57;;;;;;;14.02;5.30;;;;;;;2.37;100.00;101752.09;5115880;28;20493;-85
2023/03/05 06:51:32;;;;;;;21.67;5.18;;;;;;;2.40;100.00;101757.16;5134250;28;20031;-85
2023/03/05 06:54:03;;;;;;;11.15;4.78;;;;;;;2.46;100.00;101753.94;5115404;28;20034;-85
2023/03/05 06:56:29;;;;;;;8.98;4.47;;;;;;;2.49;100.00;101752.81;5115254;28;20035;-85
2023/03/05 06:58:55;;;;;;;11.93;4.50;;;;;;;2.55;100.00;101749.56;5115334;28;20425;-85
2023/03/05 07:01:20;;;;;;;10.90;4.40;;;;;;;2.59;100.00;101749.13;5098755;28;20031;-84
2023/03/05 07:03:51;;;;;;;9.07;3.72;;;;;;;2.65;100.00;101752.25;5134336;28;20039;-85
2023/03/05 07:06:17;;;;;;;9.35;4.43;;;;;;;2.66;100.00;101760.16;5134024;28;20027;-85
2023/03/05 07:08:43;;;;;;;8.37;3.67;;;;;;;2.69;100.00;101756.31;5115827;28;20027;-85
2023/03/05 07:11:14;;;;;;;10.20;3.65;;;;;;;2.74;100.00;101760.28;5099158;28;20376;-85
2023/03/05 07:13:40;;;;;;;12.23;3.75;;;;;;;2.76;100.00;101762.81;5119604;27;20046;-85
2023/03/05 07:16:07;;;;;;;8.23;3.80;;;;;;;2.79;100.00;101754.50;5119644;27;20035;-84
2023/03/05 07:18:34;;;;;;;9.13;3.40;;;;;;;2.85;100.00;101743.22;5119401;27;20440;-85
2023/03/05 07:21:03;;;;;;;8.60;3.75;;;;;;;2.92;100.00;101743.47;5137471;27;20039;-86
2023/03/05 07:23:39;;;;;;;5.75;3.13;;;;;;;2.98;100.00;101742.91;5118952;27;20103;-85
2023/03/05 07:26:05;;;;;;;11.27;3.22;;;;;;;3.05;100.00;101733.28;5119049;27;20015;-85
2023/03/05 07:28:32;;;;;;;6.05;3.47;;;;;;;3.14;100.00;101736.94;5119103;27;20118;-85
2023/03/05 07:31:02;;;;;;;7.63;3.03;;;;;;;3.27;100.00;101742.84;5102114;27;20038;-85
2023/03/05 07:33:28;;;;;;;10.60;3.30;;;;;;;3.31;100.00;101741.56;5137315;27;20029;-85
2023/03/05 07:35:54;;;;;;;5.78;2.53;;;;;;;3.38;100.00;101728.44;5137020;27;20027;-85
2023/03/05 07:38:19;;;;;;;7.05;2.70;;;;;;;3.51;100.00;101730.75;5137285;27;20379;-85
2023/03/05 07:40:45;;;;;;;7.47;2.87;;;;;;;3.61;100.00;101728.88;5119451;27;20084;-85
2023/03/05 07:43:11;;;;;;;8.70;3.33;;;;;;;3.74;100.00;101727.72;5118648;27;20039;-85
2023/03/05 07:45:41;;;;;;;9.30;2.53;;;;;;;3.81;100.00;101734.16;5118983;27;20070;-85
2023/03/05 07:48:08;;;;;;;6.60;2.70;;;;;;;3.86;100.00;101738.09;5137009;27;20430;-85
2023/03/05 07:50:33;;;;;;;6.05;2.10;;;;;;;3.89;100.00;101734.25;5137246;27;20031;-86
2023/03/05 07:52:59;;;;;;;8.52;2.20;;;;;;;3.84;100.00;101734.72;5119346;27;20131;-85
2023/03/05 07:55:24;;;;;;;7.20;2.33;;;;;;;3.86;100.00;101731.88;5118473;27;20035;-85
2023/03/05 07:57:55;;;;;;;4.80;2.20;;;;;;;3.93;100.00;101732.97;5118342;27;20027;-84
2023/03/05 08:00:21;;;;;;;6.03;2.05;;;;;;;4.06;100.00;101731.75;5119303;27;20031;-84
2023/03/05 08:02:46;;;;;;;4.70;1.93;;;;;;;4.15;100.00;101726.34;5118559;27;20382;-86
2023/03/05 08:05:13;;;;;;;4.35;1.80;;;;;;;4.25;100.00;101726.25;5118327;27;20076;-86
2023/03/05 08:07:38;;;;;;;4.82;1.60;;;;;;;4.30;100.00;101726.66;5136324;27;20027;-85
2023/03/05 08:10:04;;;;;;;4.37;1.60;;;;;;;4.22;100.00;101721.19;5084618;27;20023;-85
2023/03/05 08:12:30;;;;;;;8.00;1.50;;;;;;;4.23;100.00;101722.88;5101413;27;20070;-85
2023/03/05 08:14:55;;;;;;;5.10;1.60;;;;;;;4.33;100.00;101722.84;5101310;27;20095;-85
2023/03/05 08:17:20;;;;;;;4.23;1.47;;;;;;;4.44;100.00;101733.34;5118225;27;20031;-87
2023/03/05 08:19:46;;;;;;;7.33;1.60;;;;;;;4.49;100.00;101716.78;5118274;27;20042;-85
2023/03/05 08:22:11;;;;;;;5.80;1.80;;;;;;;4.58;100.00;101721.22;5101313;27;20550;-84
2023/03/05 08:24:39;;;;;;;8.37;1.60;;;;;;;4.69;99.44;101720.13;5099720;27;20086;-85
2023/03/05 08:27:04;;;;;;;4.97;1.60;;;;;;;4.74;99.81;101707.06;5117415;27;20035;-85
2023/03/05 08:29:30;;;;;;;5.47;1.40;;;;;;;4.85;98.75;101714.88;5118512;27;20092;-86
2023/03/05 08:31:55;;;;;;;6.88;1.52;;;;;;;4.86;97.93;101707.66;5118215;27;20035;-86
2023/03/05 08:34:21;;;;;;;4.78;1.50;;;;;;;4.87;97.62;101707.50;5118392;27;20118;-85
2023/03/05 08:36:46;;;;;;;5.50;1.60;;;;;;;4.96;97.52;101702.16;5100764;27;20059;-85
2023/03/05 08:39:12;;;;;;;3.30;1.23;;;;;;;5.03;96.81;101701.38;5100816;27;20134;-85
2023/03/05 08:41:37;;;;;;;3.88;1.30;;;;;;;5.18;96.22;101700.81;5117938;27;20031;-85
2023/03/05 08:44:03;;;;;;;3.90;1.33;;;;;;;5.26;95.03;101700.88;5136394;27;20031;-85
2023/03/05 08:46:29;;;;;;;2.85;1.20;;;;;;;5.24;94.07;101690.25;5100783;27;20079;-85
2023/03/05 08:48:55;;;;;;;3.15;1.10;;;;;;;5.26;93.62;101685.56;5118050;27;20053;-85
2023/03/05 08:51:25;;;;;;;5.30;1.10;;;;;;;5.23;93.54;101688.56;5135888;27;20382;-85
2023/03/05 08:53:55;;;;;;;2.85;1.20;;;;;;;5.22;92.65;101691.41;5123617;27;20027;-85
2023/03/05 08:56:21;;;;;;;4.22;1.25;;;;;;;5.17;92.51;101688.38;5102556;28;20032;-85
2023/03/05 08:58:47;;;;;;;3.13;1.25;;;;;;;5.08;92.39;101679.41;5096963;28;20038;-85
2023/03/05 09:01:12;;;;;;;4.03;1.07;;;;;;;5.21;92.93;101679.81;5097557;28;20035;-85
2023/03/05 09:03:38;;;;;;;4.57;1.52;;;;;;;5.35;92.48;101674.84;5133222;27;20027;-85
2023/03/05 09:06:06;;;;;;;3.85;1.08;;;;;;;5.50;91.48;101667.84;5135542;27;20027;-85
2023/03/05 09:08:33;;;;;;;5.20;1.10;;;;;;;5.73;90.98;101675.34;5135801;27;20455;-85
2023/03/05 09:11:02;;;;;;;3.05;1.30;;;;;;;5.79;89.95;101674.69;5135801;27;20027;-86
2023/03/05 09:13:27;;;;;;;2.75;1.20;;;;;;;5.78;88.80;101670.28;5117097;27;20019;-86
2023/03/05 09:15:54;;;;;;;2.73;0.87;;;;;;;5.84;88.03;101674.19;5100803;27;20096;-85
2023/03/05 09:18:20;;;;;;;1.08;0.55;;;;;;;5.88;87.42;101662.91;5135303;27;20039;-86
2023/03/05 09:20:45;;;;;;;3.95;0.70;;;;;;;5.86;87.44;101666.78;5135730;27;20027;-85
2023/03/05 09:23:11;;;;;;;3.50;0.70;;;;;;;5.90;86.55;101663.59;5116818;27;20035;-85
2023/03/05 09:25:39;;;;;;;2.57;0.80;;;;;;;6.13;86.13;101657.63;5116630;27;20391;-84
2023/03/05 09:28:04;;;;;;;1.70;0.80;;;;;;;6.31;85.66;101650.22;5135364;27;20046;-85
2023/03/05 09:30:30;;;;;;;4.80;0.73;;;;;;;6.50;84.50;101649.03;5116911;27;20035;-85
2023/03/05 09:32:55;;;;;;;4.43;0.90;;;;;;;6.71;84.58;101644.16;5099981;27;20112;-85
2023/03/05 09:35:21;;;;;;;3.08;0.82;;;;;;;6.96;83.38;101648.47;5100445;27;20076;-85
2023/03/05 09:37:46;;;;;;;3.00;1.10;;;;;;;7.12;82.58;101642.22;5116779;27;20432;-84
2023/03/05 09:40:18;;;;;;;5.07;1.10;;;;;;;7.27;80.61;101644.19;5099330;27;20050;-84
2023/03/05 09:42:48;;;;;;;4.78;1.63;;;;;;;7.26;80.23;101642.50;5134824;27;20019;-85
2023/03/05 09:45:13;;;;;;;2.95;1.00;;;;;;;7.34;78.50;101635.22;5116710;27;20118;-84
2023/03/05 09:47:50;;;;;;;3.00;1.30;;;;;;;7.52;78.96;101626.03;5135111;27;20477;-84
2023/03/05 09:50:19;;;;;;;2.83;1.10;;;;;;;7.57;77.72;101631.72;5116847;27;20031;-85
2023/03/05 09:52:49;;;;;;;3.10;1.50;;;;;;;7.67;78.05;101637.75;5116741;27;20035;-85
2023/03/05 09:55:35;;;;;;;5.78;1.63;;;;;;;7.70;78.38;101634.69;5115989;27;20035;-85
2023/03/05 09:58:14;;;;;;;2.88;1.70;;;;;;;7.73;77.89;101630.81;5135123;27;20031;-85
2023/03/05 10:00:43;;;;;;;8.80;1.48;;;;;;;7.75;75.30;101623.38;5135265;27;20063;-85
2023/03/05 10:03:15;;;;;;;3.33;1.35;;;;;;;7.50;75.49;101622.66;5134940;27;20041;-85
2023/03/05 10:05:52;;;;;;;2.95;1.17;;;;;;;7.31;75.32;101629.34;5116293;27;20031;-85
2023/03/05 10:08:23;;;;;;;4.05;2.30;;;;;;;7.15;75.67;101620.28;5134856;27;20023;-85
2023/03/05 10:10:52;;;;;;;3.78;1.30;;;;;;;6.92;75.36;101620.16;5116239;27;20031;-85
2023/03/05 10:13:28;;;;;;;2.03;0.90;;;;;;;6.85;77.21;101619.19;5134781;27;20023;-85
2023/03/05 10:16:18;;;;;;;2.65;0.98;;;;;;;6.83;76.35;101618.50;5134801;27;20059;-86
2023/03/05 10:19:07;;;;;;;2.30;1.15;;;;;;;6.85;77.49;101617.31;5135038;27;20067;-86
2023/03/05 10:21:49;;;;;;;3.60;1.33;;;;;;;7.01;76.67;101604.78;5115768;27;20383;-86
2023/03/05 10:24:42;;;;;;;1.63;1.00;;;;;;;7.27;76.09;101601.84;5116647;28;20045;-86
2023/03/05 10:27:17;;;;;;;2.50;1.27;;;;;;;7.42;74.93;101596.53;5134433;28;20055;-85
2023/03/05 10:30:25;;;;;;;4.30;1.45;;;;;;;7.36;75.69;101595.38;5116242;28;20126;-87
2023/03/05 10:33:21;;;;;;;4.15;0.95;;;;;;;7.30;75.73;101592.56;5117134;28;20493;-86
2023/03/05 10:36:15;;;;;;;2.95;1.25;;;;;;;7.19;75.54;101586.53;5117623;28;20019;-86
2023/03/05 10:39:18;;;;;;;3.35;1.00;;;;;;;6.97;75.93;101590.81;5115424;28;20047;-86
2023/03/05 10:42:07;;;;;;;2.38;1.33;;;;;;;6.74;76.38;101590.69;5116078;28;20027;-86
2023/03/05 10:44:48;;;;;;;3.78;1.00;;;;;;;6.42;80.48;101597.84;5116125;28;20093;-86
2023/03/05 10:47:41;;;;;;;3.17;0.82;;;;;;;5.97;84.46;101613.47;5136399;27;20079;-86
2023/03/05 10:50:18;;;;;;;2.42;0.70;;;;;;;5.56;88.66;101610.66;5120492;27;20019;-85
2023/03/05 10:52:47;;;;;;;2.17;0.60;;;;;;;5.32;91.21;101600.66;5120094;27;20046;-86
2023/03/05 10:55:15;;;;;;;1.80;0.47;;;;;;;5.17;92.65;101594.22;5137581;27;20053;-87
2023/03/05 10:57:41;;;;;;;2.50;0.57;;;;;;;5.30;92.48;101586.53;5120165;27;20031;-86
2023/03/05 11:00:20;;;;;;;1.10;0.40;;;;;;;5.55;92.35;101583.91;5138230;27;20102;-86
2023/03/05 11:03:04;;;;;;;2.40;0.40;;;;;;;5.89;91.15;101580.25;5138066;27;20015;-86
2023/03/05 11:05:42;;;;;;;1.85;0.40;;;;;;;6.28;89.42;101569.69;5137780;27;20058;-86
2023/03/05 11:08:33;;;;;;;1.50;0.40;;;;;;;6.50;86.12;101567.31;5119624;27;20019;-86
2023/03/05 11:11:08;;;;;;;2.00;0.40;;;;;;;6.72;84.83;101560.38;5119706;27;20023;-87
2023/03/05 11:13:37;;;;;;;1.25;0.40;;;;;;;7.14;83.67;101559.19;5119459;27;20032;-87
2023/03/05 11:16:07;;;;;;;1.73;0.47;;;;;;;7.51;80.65;101557.69;5119820;27;20035;-86
2023/03/05 11:18:33;;;;;;;1.00;0.50;;;;;;;7.85;82.47;101552.91;5119740;27;20081;-87
2023/03/05 11:21:11;;;;;;;3.97;0.40;;;;;;;8.29;81.86;101538.69;5137744;27;20487;-87
2023/03/05 11:23:37;;;;;;;2.20;0.40;;;;;;;9.04;78.79;101544.19;5137739;27;20482;-86
2023/03/05 11:26:17;;;;;;;1.45;0.40;;;;;;;9.96;73.58;101538.09;5118717;27;20102;-87
2023/03/05 11:29:08;;;;;;;0.90;0.40;;;;;;;11.64;68.54;101539.13;5137753;27;20028;-86
2023/03/05 11:31:34;;;;;;;3.03;0.70;;;;;;;13.21;60.93;101524.94;5119188;27;20068;-86
2023/03/05 11:34:01;;;;;;;2.97;0.60;;;;;;;13.90;58.22;101512.41;5102313;27;20036;-86